sensor_id;sensor_type;location;lat;lon;timestamp;P1;durP1;ratioP1;P2;durP2;ratioP2
52898;SDS011;38763;53.096;6.062;2023-04-24T00:02:05;9.52;;;6.50;;
52898;SDS011;38763;53.096;6.062;2023-04-24T00:04:31;8.45;;;5.70;;
52898;SDS011;38763;53.096;6.062;2023-04-24T00:06:57;9.52;;;4.88;;
52898;SDS011;38763;53.096;6.062;2023-04-24T00:09:24;7.80;;;4.88;;
52898;SDS011;38763;53.096;6.062;2023-04-24T00:11:51;7.28;;;4.80;;
52898;SDS011;38763;53.096;6.062;2023-04-24T00:14:17;10.38;;;4.90;;
52898;SDS011;38763;53.096;6.062;2023-04-24T00:16:43;10.00;;;4.82;;
52898;SDS011;38763;53.096;6.062;2023-04-24T00:19:08;9.25;;;4.88;;
52898;SDS011;38763;53.096;6.062;2023-04-24T00:21:34;8.10;;;4.90;;
52898;SDS011;38763;53.096;6.062;2023-04-24T00:24:00;7.80;;;4.75;;
52898;SDS011;38763;53.096;6.062;2023-04-24T00:26:25;8.68;;;4.85;;
52898;SDS011;38763;53.096;6.062;2023-04-24T00:28:51;7.85;;;4.85;;
52898;SDS011;38763;53.096;6.062;2023-04-24T00:31:16;7.90;;;4.70;;
52898;SDS011;38763;53.096;6.062;2023-04-24T00:33:42;6.97;;;4.88;;
52898;SDS011;38763;53.096;6.062;2023-04-24T00:36:08;8.60;;;4.90;;
52898;SDS011;38763;53.096;6.062;2023-04-24T00:38:34;8.30;;;5.15;;
52898;SDS011;38763;53.096;6.062;2023-04-24T00:41:00;6.55;;;4.78;;
52898;SDS011;38763;53.096;6.062;2023-04-24T00:43:26;6.90;;;4.75;;
52898;SDS011;38763;53.096;6.062;2023-04-24T00:45:51;7.82;;;5.05;;
52898;SDS011;38763;53.096;6.062;2023-04-24T00:48:17;9.73;;;5.35;;
52898;SDS011;38763;53.096;6.062;2023-04-24T00:50:44;8.75;;;5.53;;
52898;SDS011;38763;53.096;6.062;2023-04-24T00:53:10;9.57;;;5.18;;
52898;SDS011;38763;53.096;6.062;2023-04-24T00:55:36;9.05;;;5.65;;
52898;SDS011;38763;53.096;6.062;2023-04-24T00:58:02;11.32;;;5.72;;
52898;SDS011;38763;53.096;6.062;2023-04-24T01:00:28;9.00;;;4.97;;
52898;SDS011;38763;53.096;6.062;2023-04-24T01:02:55;7.03;;;4.53;;
52898;SDS011;38763;53.096;6.062;2023-04-24T01:05:22;8.50;;;4.88;;
52898;SDS011;38763;53.096;6.062;2023-04-24T01:07:47;8.93;;;4.65;;
52898;SDS011;38763;53.096;6.062;2023-04-24T01:10:14;6.70;;;4.55;;
52898;SDS011;38763;53.096;6.062;2023-04-24T01:12:40;6.38;;;4.32;;
52898;SDS011;38763;53.096;6.062;2023-04-24T01:15:06;7.38;;;4.35;;
52898;SDS011;38763;53.096;6.062;2023-04-24T01:17:32;6.72;;;4.18;;
52898;SDS011;38763;53.096;6.062;2023-04-24T01:19:59;7.47;;;4.03;;
52898;SDS011;38763;53.096;6.062;2023-04-24T01:22:26;7.53;;;3.80;;
52898;SDS011;38763;53.096;6.062;2023-04-24T01:24:52;6.22;;;3.53;;
52898;SDS011;38763;53.096;6.062;2023-04-24T01:27:18;6.72;;;3.35;;
52898;SDS011;38763;53.096;6.062;2023-04-24T01:29:45;5.03;;;3.33;;
52898;SDS011;38763;53.096;6.062;2023-04-24T01:32:12;5.45;;;3.08;;
52898;SDS011;38763;53.096;6.062;2023-04-24T01:34:38;5.18;;;3.45;;
52898;SDS011;38763;53.096;6.062;2023-04-24T01:37:04;5.38;;;3.25;;
52898;SDS011;38763;53.096;6.062;2023-04-24T01:39:30;5.15;;;3.28;;
52898;SDS011;38763;53.096;6.062;2023-04-24T01:41:58;5.55;;;3.55;;
52898;SDS011;38763;53.096;6.062;2023-04-24T01:44:24;7.47;;;3.90;;
52898;SDS011;38763;53.096;6.062;2023-04-24T01:46:51;7.25;;;3.97;;
52898;SDS011;38763;53.096;6.062;2023-04-24T01:49:19;7.15;;;4.10;;
52898;SDS011;38763;53.096;6.062;2023-04-24T01:51:44;6.95;;;4.10;;
52898;SDS011;38763;53.096;6.062;2023-04-24T01:54:10;7.60;;;4.07;;
52898;SDS011;38763;53.096;6.062;2023-04-24T01:56:36;5.93;;;4.07;;
52898;SDS011;38763;53.096;6.062;2023-04-24T01:59:06;6.55;;;3.97;;
52898;SDS011;38763;53.096;6.062;2023-04-24T02:01:34;8.30;;;4.45;;
52898;SDS011;38763;53.096;6.062;2023-04-24T02:04:03;6.47;;;4.70;;
52898;SDS011;38763;53.096;6.062;2023-04-24T02:06:30;7.90;;;4.88;;
52898;SDS011;38763;53.096;6.062;2023-04-24T02:08:56;7.43;;;4.65;;
52898;SDS011;38763;53.096;6.062;2023-04-24T02:11:23;8.13;;;4.90;;
52898;SDS011;38763;53.096;6.062;2023-04-24T02:13:49;7.45;;;4.68;;
52898;SDS011;38763;53.096;6.062;2023-04-24T02:16:16;7.90;;;5.03;;
52898;SDS011;38763;53.096;6.062;2023-04-24T02:18:42;9.80;;;5.70;;
52898;SDS011;38763;53.096;6.062;2023-04-24T02:21:08;10.27;;;5.88;;
52898;SDS011;38763;53.096;6.062;2023-04-24T02:23:33;12.15;;;6.05;;
52898;SDS011;38763;53.096;6.062;2023-04-24T02:25:59;9.95;;;6.38;;
52898;SDS011;38763;53.096;6.062;2023-04-24T02:28:25;10.32;;;6.43;;
52898;SDS011;38763;53.096;6.062;2023-04-24T02:30:50;11.95;;;6.93;;
52898;SDS011;38763;53.096;6.062;2023-04-24T02:33:16;10.48;;;6.68;;
52898;SDS011;38763;53.096;6.062;2023-04-24T02:35:42;12.48;;;6.95;;
52898;SDS011;38763;53.096;6.062;2023-04-24T02:38:07;10.63;;;7.47;;
52898;SDS011;38763;53.096;6.062;2023-04-24T02:40:33;12.13;;;7.20;;
52898;SDS011;38763;53.096;6.062;2023-04-24T02:42:58;12.18;;;7.43;;
52898;SDS011;38763;53.096;6.062;2023-04-24T02:45:24;11.65;;;7.10;;
52898;SDS011;38763;53.096;6.062;2023-04-24T02:47:50;11.85;;;7.07;;
52898;SDS011;38763;53.096;6.062;2023-04-24T02:50:15;13.27;;;8.18;;
52898;SDS011;38763;53.096;6.062;2023-04-24T02:52:41;12.68;;;7.90;;
52898;SDS011;38763;53.096;6.062;2023-04-24T02:55:07;13.02;;;7.65;;
52898;SDS011;38763;53.096;6.062;2023-04-24T02:57:33;13.77;;;8.07;;
52898;SDS011;38763;53.096;6.062;2023-04-24T02:59:59;12.65;;;8.18;;
52898;SDS011;38763;53.096;6.062;2023-04-24T03:02:25;11.90;;;7.90;;
52898;SDS011;38763;53.096;6.062;2023-04-24T03:04:50;11.65;;;7.72;;
52898;SDS011;38763;53.096;6.062;2023-04-24T03:07:16;12.93;;;8.25;;
52898;SDS011;38763;53.096;6.062;2023-04-24T03:09:42;13.88;;;8.65;;
52898;SDS011;38763;53.096;6.062;2023-04-24T03:12:08;12.70;;;8.55;;
52898;SDS011;38763;53.096;6.062;2023-04-24T03:14:33;13.32;;;8.35;;
52898;SDS011;38763;53.096;6.062;2023-04-24T03:16:59;16.20;;;9.05;;
52898;SDS011;38763;53.096;6.062;2023-04-24T03:19:25;14.93;;;9.10;;
52898;SDS011;38763;53.096;6.062;2023-04-24T03:21:51;13.25;;;8.70;;
52898;SDS011;38763;53.096;6.062;2023-04-24T03:24:16;13.68;;;8.80;;
52898;SDS011;38763;53.096;6.062;2023-04-24T03:26:42;12.90;;;8.65;;
52898;SDS011;38763;53.096;6.062;2023-04-24T03:29:07;14.75;;;9.05;;
52898;SDS011;38763;53.096;6.062;2023-04-24T03:31:33;14.50;;;8.82;;
52898;SDS011;38763;53.096;6.062;2023-04-24T03:33:59;11.38;;;7.15;;
52898;SDS011;38763;53.096;6.062;2023-04-24T03:36:24;9.90;;;6.65;;
52898;SDS011;38763;53.096;6.062;2023-04-24T03:38:51;9.13;;;5.15;;
52898;SDS011;38763;53.096;6.062;2023-04-24T03:41:17;9.25;;;4.68;;
52898;SDS011;38763;53.096;6.062;2023-04-24T03:43:42;6.53;;;3.53;;
52898;SDS011;38763;53.096;6.062;2023-04-24T03:46:08;5.07;;;3.10;;
52898;SDS011;38763;53.096;6.062;2023-04-24T03:48:34;4.05;;;2.40;;
52898;SDS011;38763;53.096;6.062;2023-04-24T03:51:00;5.13;;;1.90;;
52898;SDS011;38763;53.096;6.062;2023-04-24T03:53:26;3.30;;;1.92;;
52898;SDS011;38763;53.096;6.062;2023-04-24T03:55:52;4.35;;;1.90;;
52898;SDS011;38763;53.096;6.062;2023-04-24T03:58:18;4.70;;;2.03;;
52898;SDS011;38763;53.096;6.062;2023-04-24T04:00:44;5.20;;;1.98;;
52898;SDS011;38763;53.096;6.062;2023-04-24T04:03:11;2.67;;;1.70;;
52898;SDS011;38763;53.096;6.062;2023-04-24T04:05:38;3.30;;;1.98;;
52898;SDS011;38763;53.096;6.062;2023-04-24T04:08:04;3.97;;;2.35;;
52898;SDS011;38763;53.096;6.062;2023-04-24T04:10:30;4.13;;;2.20;;
52898;SDS011;38763;53.096;6.062;2023-04-24T04:12:55;3.53;;;1.80;;
52898;SDS011;38763;53.096;6.062;2023-04-24T04:15:21;4.13;;;1.80;;
52898;SDS011;38763;53.096;6.062;2023-04-24T04:17:47;3.20;;;1.80;;
52898;SDS011;38763;53.096;6.062;2023-04-24T04:20:12;4.60;;;2.38;;
52898;SDS011;38763;53.096;6.062;2023-04-24T04:22:38;4.22;;;2.58;;
52898;SDS011;38763;53.096;6.062;2023-04-24T04:25:04;6.22;;;3.08;;
52898;SDS011;38763;53.096;6.062;2023-04-24T04:27:30;6.53;;;3.42;;
52898;SDS011;38763;53.096;6.062;2023-04-24T04:30:00;7.50;;;3.50;;
52898;SDS011;38763;53.096;6.062;2023-04-24T04:32:29;8.45;;;3.83;;
52898;SDS011;38763;53.096;6.062;2023-04-24T04:34:58;6.60;;;3.63;;
52898;SDS011;38763;53.096;6.062;2023-04-24T04:37:28;8.40;;;3.70;;
52898;SDS011;38763;53.096;6.062;2023-04-24T04:39:54;8.80;;;3.80;;
52898;SDS011;38763;53.096;6.062;2023-04-24T04:42:20;8.27;;;3.90;;
52898;SDS011;38763;53.096;6.062;2023-04-24T04:44:45;6.90;;;3.50;;
52898;SDS011;38763;53.096;6.062;2023-04-24T04:47:11;8.15;;;4.03;;
52898;SDS011;38763;53.096;6.062;2023-04-24T04:49:37;7.30;;;3.85;;
52898;SDS011;38763;53.096;6.062;2023-04-24T04:52:03;8.88;;;4.13;;
52898;SDS011;38763;53.096;6.062;2023-04-24T04:54:30;8.02;;;4.20;;
52898;SDS011;38763;53.096;6.062;2023-04-24T04:56:56;7.65;;;4.45;;
52898;SDS011;38763;53.096;6.062;2023-04-24T04:59:22;9.32;;;5.07;;
52898;SDS011;38763;53.096;6.062;2023-04-24T05:01:47;9.27;;;5.30;;
52898;SDS011;38763;53.096;6.062;2023-04-24T05:04:13;9.40;;;5.65;;
52898;SDS011;38763;53.096;6.062;2023-04-24T05:06:39;10.40;;;5.72;;
52898;SDS011;38763;53.096;6.062;2023-04-24T05:09:05;11.45;;;5.80;;
52898;SDS011;38763;53.096;6.062;2023-04-24T05:11:32;9.80;;;5.53;;
52898;SDS011;38763;53.096;6.062;2023-04-24T05:13:57;9.85;;;5.07;;
52898;SDS011;38763;53.096;6.062;2023-04-24T05:16:23;11.15;;;5.78;;
52898;SDS011;38763;53.096;6.062;2023-04-24T05:18:49;11.77;;;5.40;;
52898;SDS011;38763;53.096;6.062;2023-04-24T05:21:14;11.00;;;5.20;;
52898;SDS011;38763;53.096;6.062;2023-04-24T05:23:40;11.57;;;5.07;;
52898;SDS011;38763;53.096;6.062;2023-04-24T05:26:06;10.27;;;5.03;;
52898;SDS011;38763;53.096;6.062;2023-04-24T05:28:31;10.45;;;5.55;;
52898;SDS011;38763;53.096;6.062;2023-04-24T05:30:57;11.93;;;5.68;;
52898;SDS011;38763;53.096;6.062;2023-04-24T05:33:24;10.68;;;5.78;;
52898;SDS011;38763;53.096;6.062;2023-04-24T05:35:50;11.85;;;6.13;;
52898;SDS011;38763;53.096;6.062;2023-04-24T05:38:16;14.13;;;6.45;;
52898;SDS011;38763;53.096;6.062;2023-04-24T05:40:44;13.70;;;7.00;;
52898;SDS011;38763;53.096;6.062;2023-04-24T05:43:13;14.82;;;7.45;;
52898;SDS011;38763;53.096;6.062;2023-04-24T05:45:38;14.30;;;6.68;;
52898;SDS011;38763;53.096;6.062;2023-04-24T05:48:04;12.68;;;6.43;;
52898;SDS011;38763;53.096;6.062;2023-04-24T05:50:30;13.95;;;6.47;;
52898;SDS011;38763;53.096;6.062;2023-04-24T05:52:56;10.23;;;5.50;;
52898;SDS011;38763;53.096;6.062;2023-04-24T05:55:26;8.82;;;5.25;;
52898;SDS011;38763;53.096;6.062;2023-04-24T05:57:52;9.60;;;4.75;;
52898;SDS011;38763;53.096;6.062;2023-04-24T06:00:18;8.90;;;4.90;;
52898;SDS011;38763;53.096;6.062;2023-04-24T06:02:45;12.93;;;4.97;;
52898;SDS011;38763;53.096;6.062;2023-04-24T06:05:11;9.43;;;4.93;;
52898;SDS011;38763;53.096;6.062;2023-04-24T06:07:37;6.80;;;4.38;;
52898;SDS011;38763;53.096;6.062;2023-04-24T06:10:02;7.72;;;4.22;;
52898;SDS011;38763;53.096;6.062;2023-04-24T06:12:28;7.88;;;3.30;;
52898;SDS011;38763;53.096;6.062;2023-04-24T06:14:54;7.22;;;3.25;;
52898;SDS011;38763;53.096;6.062;2023-04-24T06:17:22;7.50;;;2.60;;
52898;SDS011;38763;53.096;6.062;2023-04-24T06:19:48;6.03;;;2.60;;
52898;SDS011;38763;53.096;6.062;2023-04-24T06:22:14;7.93;;;2.90;;
52898;SDS011;38763;53.096;6.062;2023-04-24T06:24:40;6.70;;;2.70;;
52898;SDS011;38763;53.096;6.062;2023-04-24T06:27:06;9.07;;;2.70;;
52898;SDS011;38763;53.096;6.062;2023-04-24T06:29:32;7.50;;;2.58;;
52898;SDS011;38763;53.096;6.062;2023-04-24T06:31:58;6.18;;;2.20;;
52898;SDS011;38763;53.096;6.062;2023-04-24T06:34:24;10.35;;;2.38;;
52898;SDS011;38763;53.096;6.062;2023-04-24T06:36:50;4.30;;;1.95;;
52898;SDS011;38763;53.096;6.062;2023-04-24T06:39:16;4.20;;;2.00;;
52898;SDS011;38763;53.096;6.062;2023-04-24T06:41:41;4.20;;;2.22;;
52898;SDS011;38763;53.096;6.062;2023-04-24T06:44:07;6.30;;;2.88;;
52898;SDS011;38763;53.096;6.062;2023-04-24T06:46:33;7.80;;;3.10;;
52898;SDS011;38763;53.096;6.062;2023-04-24T06:48:59;7.43;;;3.30;;
52898;SDS011;38763;53.096;6.062;2023-04-24T06:51:26;9.70;;;3.83;;
52898;SDS011;38763;53.096;6.062;2023-04-24T06:53:55;11.05;;;3.42;;
52898;SDS011;38763;53.096;6.062;2023-04-24T06:56:23;8.02;;;3.63;;
52898;SDS011;38763;53.096;6.062;2023-04-24T06:58:50;8.63;;;3.35;;
52898;SDS011;38763;53.096;6.062;2023-04-24T07:01:16;8.05;;;2.97;;
52898;SDS011;38763;53.096;6.062;2023-04-24T07:03:42;7.03;;;3.22;;
52898;SDS011;38763;53.096;6.062;2023-04-24T07:06:07;6.82;;;3.53;;
52898;SDS011;38763;53.096;6.062;2023-04-24T07:08:35;12.80;;;5.55;;
52898;SDS011;38763;53.096;6.062;2023-04-24T07:11:01;17.10;;;5.90;;
52898;SDS011;38763;53.096;6.062;2023-04-24T07:13:26;11.93;;;6.28;;
52898;SDS011;38763;53.096;6.062;2023-04-24T07:15:53;18.02;;;7.60;;
52898;SDS011;38763;53.096;6.062;2023-04-24T07:18:20;23.02;;;8.38;;
52898;SDS011;38763;53.096;6.062;2023-04-24T07:20:46;17.63;;;8.38;;
52898;SDS011;38763;53.096;6.062;2023-04-24T07:23:12;25.20;;;9.85;;
52898;SDS011;38763;53.096;6.062;2023-04-24T07:25:37;20.80;;;10.43;;
52898;SDS011;38763;53.096;6.062;2023-04-24T07:28:04;22.40;;;10.48;;
52898;SDS011;38763;53.096;6.062;2023-04-24T07:30:30;28.08;;;10.27;;
52898;SDS011;38763;53.096;6.062;2023-04-24T07:32:57;22.88;;;10.73;;
52898;SDS011;38763;53.096;6.062;2023-04-24T07:35:24;22.10;;;10.75;;
52898;SDS011;38763;53.096;6.062;2023-04-24T07:37:51;22.10;;;9.98;;
52898;SDS011;38763;53.096;6.062;2023-04-24T07:40:20;21.77;;;9.32;;
52898;SDS011;38763;53.096;6.062;2023-04-24T07:42:46;19.25;;;8.98;;
52898;SDS011;38763;53.096;6.062;2023-04-24T07:45:13;17.95;;;9.10;;
52898;SDS011;38763;53.096;6.062;2023-04-24T07:47:41;19.38;;;9.52;;
52898;SDS011;38763;53.096;6.062;2023-04-24T07:50:09;26.02;;;10.75;;
52898;SDS011;38763;53.096;6.062;2023-04-24T07:52:35;25.98;;;11.13;;
52898;SDS011;38763;53.096;6.062;2023-04-24T07:55:00;28.08;;;12.45;;
52898;SDS011;38763;53.096;6.062;2023-04-24T07:57:27;25.67;;;11.98;;
52898;SDS011;38763;53.096;6.062;2023-04-24T07:59:53;23.10;;;11.75;;
52898;SDS011;38763;53.096;6.062;2023-04-24T08:02:19;26.35;;;12.55;;
52898;SDS011;38763;53.096;6.062;2023-04-24T08:04:51;24.60;;;12.43;;
52898;SDS011;38763;53.096;6.062;2023-04-24T08:07:19;21.80;;;12.80;;
52898;SDS011;38763;53.096;6.062;2023-04-24T08:09:45;26.85;;;12.38;;
52898;SDS011;38763;53.096;6.062;2023-04-24T08:12:11;21.33;;;11.35;;
52898;SDS011;38763;53.096;6.062;2023-04-24T08:14:37;22.38;;;10.45;;
52898;SDS011;38763;53.096;6.062;2023-04-24T08:17:02;17.52;;;8.65;;
52898;SDS011;38763;53.096;6.062;2023-04-24T08:19:28;19.02;;;8.68;;
52898;SDS011;38763;53.096;6.062;2023-04-24T08:21:54;14.02;;;8.45;;
52898;SDS011;38763;53.096;6.062;2023-04-24T08:24:20;17.23;;;8.10;;
52898;SDS011;38763;53.096;6.062;2023-04-24T08:26:46;13.98;;;7.38;;
52898;SDS011;38763;53.096;6.062;2023-04-24T08:29:15;12.98;;;7.20;;
52898;SDS011;38763;53.096;6.062;2023-04-24T08:31:41;19.75;;;7.60;;
52898;SDS011;38763;53.096;6.062;2023-04-24T08:34:06;17.95;;;7.55;;
52898;SDS011;38763;53.096;6.062;2023-04-24T08:36:32;12.77;;;7.15;;
52898;SDS011;38763;53.096;6.062;2023-04-24T08:38:58;17.20;;;7.40;;
52898;SDS011;38763;53.096;6.062;2023-04-24T08:41:24;13.07;;;6.95;;
52898;SDS011;38763;53.096;6.062;2023-04-24T08:43:51;13.60;;;7.13;;
52898;SDS011;38763;53.096;6.062;2023-04-24T08:46:17;13.82;;;7.00;;
52898;SDS011;38763;53.096;6.062;2023-04-24T08:48:45;11.75;;;6.90;;
52898;SDS011;38763;53.096;6.062;2023-04-24T08:51:11;12.73;;;6.75;;
52898;SDS011;38763;53.096;6.062;2023-04-24T08:53:36;14.82;;;6.90;;
52898;SDS011;38763;53.096;6.062;2023-04-24T08:56:03;13.75;;;6.38;;
52898;SDS011;38763;53.096;6.062;2023-04-24T08:58:29;15.20;;;6.50;;
52898;SDS011;38763;53.096;6.062;2023-04-24T09:00:56;18.33;;;5.78;;
52898;SDS011;38763;53.096;6.062;2023-04-24T09:03:23;14.07;;;5.78;;
52898;SDS011;38763;53.096;6.062;2023-04-24T09:05:49;16.80;;;6.30;;
52898;SDS011;38763;53.096;6.062;2023-04-24T09:08:19;18.42;;;6.57;;
52898;SDS011;38763;53.096;6.062;2023-04-24T09:10:47;13.77;;;4.97;;
52898;SDS011;38763;53.096;6.062;2023-04-24T09:13:13;12.40;;;5.20;;
52898;SDS011;38763;53.096;6.062;2023-04-24T09:15:39;14.48;;;4.68;;
52898;SDS011;38763;53.096;6.062;2023-04-24T09:18:05;12.75;;;4.78;;
52898;SDS011;38763;53.096;6.062;2023-04-24T09:20:32;12.93;;;4.32;;
52898;SDS011;38763;53.096;6.062;2023-04-24T09:22:58;13.27;;;4.43;;
52898;SDS011;38763;53.096;6.062;2023-04-24T09:25:33;10.27;;;4.07;;
52898;SDS011;38763;53.096;6.062;2023-04-24T09:28:01;9.75;;;3.67;;
52898;SDS011;38763;53.096;6.062;2023-04-24T09:30:28;10.27;;;3.35;;
52898;SDS011;38763;53.096;6.062;2023-04-24T09:33:09;11.70;;;2.95;;
52898;SDS011;38763;53.096;6.062;2023-04-24T09:35:40;14.15;;;3.90;;
52898;SDS011;38763;53.096;6.062;2023-04-24T09:38:16;7.45;;;3.20;;
52898;SDS011;38763;53.096;6.062;2023-04-24T09:40:41;14.02;;;4.05;;
52898;SDS011;38763;53.096;6.062;2023-04-24T09:43:10;15.25;;;3.70;;
52898;SDS011;38763;53.096;6.062;2023-04-24T09:45:37;10.13;;;3.53;;
52898;SDS011;38763;53.096;6.062;2023-04-24T09:48:04;15.40;;;3.78;;
52898;SDS011;38763;53.096;6.062;2023-04-24T09:50:31;11.55;;;3.03;;
52898;SDS011;38763;53.096;6.062;2023-04-24T09:53:01;10.40;;;2.80;;
52898;SDS011;38763;53.096;6.062;2023-04-24T09:55:28;8.43;;;2.80;;
52898;SDS011;38763;53.096;6.062;2023-04-24T09:57:55;7.60;;;2.50;;
52898;SDS011;38763;53.096;6.062;2023-04-24T10:00:25;9.63;;;2.47;;
52898;SDS011;38763;53.096;6.062;2023-04-24T10:03:04;10.80;;;2.65;;
52898;SDS011;38763;53.096;6.062;2023-04-24T10:05:34;8.27;;;2.80;;
52898;SDS011;38763;53.096;6.062;2023-04-24T10:08:01;9.48;;;2.35;;
52898;SDS011;38763;53.096;6.062;2023-04-24T10:10:29;10.80;;;2.70;;
52898;SDS011;38763;53.096;6.062;2023-04-24T10:12:55;9.43;;;2.70;;
52898;SDS011;38763;53.096;6.062;2023-04-24T10:15:21;8.95;;;2.35;;
52898;SDS011;38763;53.096;6.062;2023-04-24T10:17:48;9.77;;;2.55;;
52898;SDS011;38763;53.096;6.062;2023-04-24T10:20:21;9.27;;;2.25;;
52898;SDS011;38763;53.096;6.062;2023-04-24T10:22:49;11.80;;;2.50;;
52898;SDS011;38763;53.096;6.062;2023-04-24T10:25:17;9.82;;;2.60;;
52898;SDS011;38763;53.096;6.062;2023-04-24T10:27:48;12.15;;;2.63;;
52898;SDS011;38763;53.096;6.062;2023-04-24T10:30:14;13.18;;;2.45;;
52898;SDS011;38763;53.096;6.062;2023-04-24T10:32:41;9.48;;;2.00;;
52898;SDS011;38763;53.096;6.062;2023-04-24T10:35:07;8.90;;;2.20;;
52898;SDS011;38763;53.096;6.062;2023-04-24T10:37:35;9.68;;;2.30;;
52898;SDS011;38763;53.096;6.062;2023-04-24T10:40:03;8.05;;;1.73;;
52898;SDS011;38763;53.096;6.062;2023-04-24T10:42:30;10.52;;;1.85;;
52898;SDS011;38763;53.096;6.062;2023-04-24T10:44:56;11.60;;;2.13;;
52898;SDS011;38763;53.096;6.062;2023-04-24T10:47:23;8.13;;;1.90;;
52898;SDS011;38763;53.096;6.062;2023-04-24T10:49:50;8.30;;;1.90;;
52898;SDS011;38763;53.096;6.062;2023-04-24T10:52:16;7.28;;;1.80;;
52898;SDS011;38763;53.096;6.062;2023-04-24T10:54:45;9.52;;;1.98;;
52898;SDS011;38763;53.096;6.062;2023-04-24T10:59:44;8.23;;;1.60;;
52898;SDS011;38763;53.096;6.062;2023-04-24T11:02:10;5.80;;;1.60;;
52898;SDS011;38763;53.096;6.062;2023-04-24T11:04:39;11.85;;;1.70;;
52898;SDS011;38763;53.096;6.062;2023-04-24T11:07:05;9.32;;;2.00;;
52898;SDS011;38763;53.096;6.062;2023-04-24T11:09:31;10.98;;;2.03;;
52898;SDS011;38763;53.096;6.062;2023-04-24T11:12:04;10.85;;;1.90;;
52898;SDS011;38763;53.096;6.062;2023-04-24T11:17:30;8.32;;;1.73;;
52898;SDS011;38763;53.096;6.062;2023-04-24T11:20:04;12.43;;;1.80;;
52898;SDS011;38763;53.096;6.062;2023-04-24T11:22:33;12.07;;;2.10;;
52898;SDS011;38763;53.096;6.062;2023-04-24T11:25:00;4.50;;;1.55;;
52898;SDS011;38763;53.096;6.062;2023-04-24T11:27:29;10.18;;;2.17;;
52898;SDS011;38763;53.096;6.062;2023-04-24T11:32:34;9.55;;;1.80;;
52898;SDS011;38763;53.096;6.062;2023-04-24T11:37:33;10.68;;;2.03;;
52898;SDS011;38763;53.096;6.062;2023-04-24T11:39:59;10.75;;;1.80;;
52898;SDS011;38763;53.096;6.062;2023-04-24T11:42:24;9.50;;;1.88;;
52898;SDS011;38763;53.096;6.062;2023-04-24T11:44:53;8.77;;;1.70;;
52898;SDS011;38763;53.096;6.062;2023-04-24T11:47:29;9.77;;;1.90;;
52898;SDS011;38763;53.096;6.062;2023-04-24T11:49:56;6.47;;;1.60;;
52898;SDS011;38763;53.096;6.062;2023-04-24T11:52:22;9.82;;;2.40;;
52898;SDS011;38763;53.096;6.062;2023-04-24T11:54:51;8.02;;;1.58;;
52898;SDS011;38763;53.096;6.062;2023-04-24T11:57:20;6.18;;;1.60;;
52898;SDS011;38763;53.096;6.062;2023-04-24T11:59:47;10.10;;;1.90;;
52898;SDS011;38763;53.096;6.062;2023-04-24T12:02:20;5.70;;;1.17;;
52898;SDS011;38763;53.096;6.062;2023-04-24T12:04:49;9.23;;;1.40;;
52898;SDS011;38763;53.096;6.062;2023-04-24T12:07:15;6.10;;;1.30;;
52898;SDS011;38763;53.096;6.062;2023-04-24T12:09:41;5.47;;;1.30;;
52898;SDS011;38763;53.096;6.062;2023-04-24T12:12:09;5.35;;;1.20;;
52898;SDS011;38763;53.096;6.062;2023-04-24T12:14:48;6.68;;;1.27;;
52898;SDS011;38763;53.096;6.062;2023-04-24T12:17:17;7.82;;;1.10;;
52898;SDS011;38763;53.096;6.062;2023-04-24T12:19:46;7.80;;;1.20;;
52898;SDS011;38763;53.096;6.062;2023-04-24T12:22:13;4.85;;;1.60;;
52898;SDS011;38763;53.096;6.062;2023-04-24T12:27:25;8.00;;;1.50;;
52898;SDS011;38763;53.096;6.062;2023-04-24T12:29:57;6.53;;;1.00;;
52898;SDS011;38763;53.096;6.062;2023-04-24T12:32:24;2.97;;;0.90;;
52898;SDS011;38763;53.096;6.062;2023-04-24T12:34:50;5.38;;;0.90;;
52898;SDS011;38763;53.096;6.062;2023-04-24T12:37:17;7.05;;;1.08;;
52898;SDS011;38763;53.096;6.062;2023-04-24T12:42:42;7.63;;;1.00;;
52898;SDS011;38763;53.096;6.062;2023-04-24T12:45:11;5.40;;;1.17;;
52898;SDS011;38763;53.096;6.062;2023-04-24T12:47:38;3.42;;;0.82;;
52898;SDS011;38763;53.096;6.062;2023-04-24T12:50:05;8.65;;;1.80;;
52898;SDS011;38763;53.096;6.062;2023-04-24T12:52:32;4.65;;;1.10;;
52898;SDS011;38763;53.096;6.062;2023-04-24T12:54:58;5.38;;;1.05;;
52898;SDS011;38763;53.096;6.062;2023-04-24T12:57:25;21.60;;;2.92;;
52898;SDS011;38763;53.096;6.062;2023-04-24T12:59:55;3.83;;;0.95;;
52898;SDS011;38763;53.096;6.062;2023-04-24T13:02:23;3.50;;;0.75;;
52898;SDS011;38763;53.096;6.062;2023-04-24T13:04:52;3.85;;;0.60;;
52898;SDS011;38763;53.096;6.062;2023-04-24T13:07:19;6.43;;;0.80;;
52898;SDS011;38763;53.096;6.062;2023-04-24T13:09:45;2.22;;;0.73;;
52898;SDS011;38763;53.096;6.062;2023-04-24T13:12:12;2.45;;;0.65;;
52898;SDS011;38763;53.096;6.062;2023-04-24T13:14:38;3.30;;;0.70;;
52898;SDS011;38763;53.096;6.062;2023-04-24T13:17:04;2.72;;;0.90;;
52898;SDS011;38763;53.096;6.062;2023-04-24T13:19:30;4.47;;;0.80;;
52898;SDS011;38763;53.096;6.062;2023-04-24T13:22:01;3.25;;;0.82;;
52898;SDS011;38763;53.096;6.062;2023-04-24T13:24:27;6.68;;;1.00;;
52898;SDS011;38763;53.096;6.062;2023-04-24T13:26:52;8.00;;;1.58;;
52898;SDS011;38763;53.096;6.062;2023-04-24T13:29:18;6.80;;;1.20;;
52898;SDS011;38763;53.096;6.062;2023-04-24T13:31:46;4.82;;;1.52;;
52898;SDS011;38763;53.096;6.062;2023-04-24T13:34:12;6.00;;;1.70;;
52898;SDS011;38763;53.096;6.062;2023-04-24T13:36:38;8.73;;;1.80;;
52898;SDS011;38763;53.096;6.062;2023-04-24T13:39:04;7.80;;;2.17;;
52898;SDS011;38763;53.096;6.062;2023-04-24T13:41:30;13.07;;;2.15;;
52898;SDS011;38763;53.096;6.062;2023-04-24T13:43:57;12.85;;;2.10;;
52898;SDS011;38763;53.096;6.062;2023-04-24T13:46:23;12.05;;;2.22;;
52898;SDS011;38763;53.096;6.062;2023-04-24T13:48:49;10.32;;;1.85;;
52898;SDS011;38763;53.096;6.062;2023-04-24T13:51:15;12.98;;;2.05;;
52898;SDS011;38763;53.096;6.062;2023-04-24T13:53:40;8.23;;;2.00;;
52898;SDS011;38763;53.096;6.062;2023-04-24T13:56:06;13.50;;;2.17;;
52898;SDS011;38763;53.096;6.062;2023-04-24T13:58:32;8.13;;;1.95;;
52898;SDS011;38763;53.096;6.062;2023-04-24T14:00:58;8.02;;;1.70;;
52898;SDS011;38763;53.096;6.062;2023-04-24T14:03:24;6.88;;;1.90;;
52898;SDS011;38763;53.096;6.062;2023-04-24T14:05:49;11.15;;;2.05;;
52898;SDS011;38763;53.096;6.062;2023-04-24T14:08:15;13.70;;;2.22;;
52898;SDS011;38763;53.096;6.062;2023-04-24T14:10:42;9.45;;;2.10;;
52898;SDS011;38763;53.096;6.062;2023-04-24T14:13:08;10.98;;;2.35;;
52898;SDS011;38763;53.096;6.062;2023-04-24T14:15:35;15.95;;;2.75;;
52898;SDS011;38763;53.096;6.062;2023-04-24T14:18:01;11.10;;;2.53;;
52898;SDS011;38763;53.096;6.062;2023-04-24T14:20:28;16.55;;;3.15;;
52898;SDS011;38763;53.096;6.062;2023-04-24T14:22:53;12.15;;;2.53;;
52898;SDS011;38763;53.096;6.062;2023-04-24T14:25:19;10.10;;;2.40;;
52898;SDS011;38763;53.096;6.062;2023-04-24T14:27:45;7.55;;;2.22;;
52898;SDS011;38763;53.096;6.062;2023-04-24T14:30:12;12.00;;;2.60;;
52898;SDS011;38763;53.096;6.062;2023-04-24T14:32:38;7.82;;;2.05;;
52898;SDS011;38763;53.096;6.062;2023-04-24T14:35:05;13.23;;;2.42;;
52898;SDS011;38763;53.096;6.062;2023-04-24T14:37:31;10.45;;;2.55;;
52898;SDS011;38763;53.096;6.062;2023-04-24T14:39:57;16.20;;;2.75;;
52898;SDS011;38763;53.096;6.062;2023-04-24T14:42:23;14.48;;;2.75;;
52898;SDS011;38763;53.096;6.062;2023-04-24T14:44:49;11.48;;;2.72;;
52898;SDS011;38763;53.096;6.062;2023-04-24T14:47:15;9.15;;;2.40;;
52898;SDS011;38763;53.096;6.062;2023-04-24T14:49:42;11.65;;;2.67;;
52898;SDS011;38763;53.096;6.062;2023-04-24T14:52:09;15.75;;;3.10;;
52898;SDS011;38763;53.096;6.062;2023-04-24T14:54:35;10.38;;;2.85;;